Time;durP1;ratioP1;P1;durP2;ratioP2;P2;SDS_P1;SDS_P2;PMS_P1;PMS_P2;Temp;Humidity;BMP_temperature;BMP_pressure;BME280_temperature;BME280_humidity;BME280_pressure;Samples;Min_cycle;Max_cycle;Signal;HPM_P1;HPM_P2
2022/04/14 00:02:20;;;;;;;0.00;0.00;;;16.40;69.70;;;;;;4124693;28;20473;-72
2022/04/14 00:04:46;;;;;;;0.00;0.00;;;16.30;70.20;;;;;;4151678;28;20433;-67
2022/04/14 00:07:16;;;;;;;0.00;0.00;;;16.40;70.40;;;;;;4151664;28;20050;-71
2022/04/14 00:09:41;;;;;;;0.00;0.00;;;16.40;70.40;;;;;;4151923;28;20045;-69
2022/04/14 00:12:09;;;;;;;0.00;0.00;;;16.50;70.50;;;;;;4166504;28;20056;-70
2022/04/14 00:14:32;;;;;;;0.00;0.00;;;16.50;70.40;;;;;;4152230;28;20045;-70
2022/04/14 00:16:55;;;;;;;0.00;0.00;;;16.50;70.30;;;;;;4166115;28;20096;-70
2022/04/14 00:19:20;;;;;;;0.00;0.00;;;16.50;70.50;;;;;;4166254;28;20478;-68
2022/04/14 00:21:43;;;;;;;0.00;0.00;;;16.40;70.90;;;;;;4151676;28;20164;-70
2022/04/14 00:24:06;;;;;;;0.00;0.00;;;16.40;70.70;;;;;;4151587;28;20042;-68
2022/04/14 00:26:31;;;;;;;0.00;0.00;;;16.40;70.70;;;;;;4151490;28;20083;-70
2022/04/14 00:28:57;;;;;;;0.00;0.00;;;16.40;70.90;;;;;;4137948;28;20160;-68
2022/04/14 00:31:19;;;;;;;0.00;0.00;;;16.30;70.90;;;;;;4165728;28;20195;-68
2022/04/14 00:33:44;;;;;;;0.00;0.00;;;16.30;71.10;;;;;;4137940;28;20042;-67
2022/04/14 00:36:16;;;;;;;0.00;0.00;;;16.30;71.00;;;;;;4140212;28;20076;-68
2022/04/14 00:38:50;;;;;;;0.00;0.00;;;16.30;71.00;;;;;;4164963;28;20126;-68
2022/04/14 00:41:24;;;;;;;0.00;0.00;;;16.30;71.10;;;;;;4165656;28;20060;-66
2022/04/14 00:43:54;;;;;;;0.00;0.00;;;16.20;71.30;;;;;;4165643;28;20073;-70
2022/04/14 00:46:17;;;;;;;0.00;0.00;;;16.20;71.40;;;;;;4165615;28;20072;-68
2022/04/14 00:48:40;;;;;;;0.00;0.00;;;16.10;71.40;;;;;;4150481;28;20046;-66
2022/04/14 00:51:03;;;;;;;0.00;0.00;;;16.20;71.50;;;;;;4150769;28;20069;-73
2022/04/14 00:53:27;;;;;;;0.00;0.00;;;16.10;71.70;;;;;;4165445;28;20057;-66
2022/04/14 00:55:51;;;;;;;0.00;0.00;;;16.00;72.10;;;;;;4165353;28;20043;-67
2022/04/14 00:58:16;;;;;;;0.00;0.00;;;15.90;72.60;;;;;;4151222;28;20107;-67
2022/04/14 01:00:45;;;;;;;0.00;0.00;;;15.90;72.60;;;;;;4164951;28;20467;-67
2022/04/14 01:03:10;;;;;;;0.00;0.00;;;15.90;72.50;;;;;;4137827;28;20046;-70
2022/04/14 01:05:39;;;;;;;0.00;0.00;;;15.90;72.50;;;;;;4137831;28;20064;-70
2022/04/14 01:08:05;;;;;;;0.00;0.00;;;15.90;72.50;;;;;;4150988;28;20044;-69
2022/04/14 01:10:29;;;;;;;0.00;0.00;;;16.00;72.60;;;;;;4165163;28;20043;-67
2022/04/14 01:12:56;;;;;;;0.00;0.00;;;15.90;72.70;;;;;;4149417;28;20057;-68
2022/04/14 01:15:21;;;;;;;0.00;0.00;;;15.90;72.80;;;;;;4150572;28;20052;-70
2022/04/14 01:17:46;;;;;;;0.00;0.00;;;15.90;73.00;;;;;;4150662;28;20046;-69
2022/04/14 01:20:15;;;;;;;0.00;0.00;;;15.80;73.20;;;;;;4150766;28;20040;-71
2022/04/14 01:23:04;;;;;;;0.00;0.00;;;15.80;73.20;;;;;;4151592;28;20120;-67
2022/04/14 01:25:27;;;;;;;0.00;0.00;;;15.80;73.30;;;;;;4136366;28;20042;-69
2022/04/14 01:27:51;;;;;;;0.00;0.00;;;15.70;73.50;;;;;;4137368;28;20049;-70
2022/04/14 01:30:16;;;;;;;0.00;0.00;;;15.60;73.70;;;;;;4150285;28;20099;-69
2022/04/14 01:32:38;;;;;;;0.00;0.00;;;15.60;73.90;;;;;;4150506;28;20095;-70
2022/04/14 01:35:02;;;;;;;0.00;0.00;;;15.60;74.00;;;;;;4136557;28;20052;-69
2022/04/14 01:37:29;;;;;;;0.00;0.00;;;15.60;74.00;;;;;;4150396;28;20045;-69
2022/04/14 01:39:51;;;;;;;0.00;0.00;;;15.60;74.00;;;;;;4150290;28;20046;-69
2022/04/14 01:42:13;;;;;;;0.00;0.00;;;15.60;74.00;;;;;;4136840;28;20054;-69
2022/04/14 01:44:38;;;;;;;0.00;0.00;;;15.50;74.00;;;;;;4136820;28;20053;-67
2022/04/14 01:47:02;;;;;;;0.00;0.00;;;15.60;74.20;;;;;;4149751;28;20056;-70
2022/04/14 01:49:24;;;;;;;0.00;0.00;;;15.50;74.30;;;;;;4150272;28;20049;-69
2022/04/14 01:51:52;;;;;;;0.00;0.00;;;15.40;74.30;;;;;;4150176;28;20093;-68
2022/04/14 01:54:17;;;;;;;0.00;0.00;;;15.40;74.60;;;;;;4123531;28;20042;-70
2022/04/14 01:56:42;;;;;;;0.00;0.00;;;15.40;74.90;;;;;;4136586;28;20103;-66
2022/04/14 01:59:04;;;;;;;0.00;0.00;;;15.30;75.00;;;;;;4149420;28;20046;-69
2022/04/14 02:01:28;;;;;;;0.00;0.00;;;15.30;75.10;;;;;;4150292;28;20042;-69
2022/04/14 02:03:54;;;;;;;0.00;0.00;;;15.30;75.10;;;;;;4136278;28;20050;-68
2022/04/14 02:06:21;;;;;;;0.00;0.00;;;15.30;75.20;;;;;;4136630;28;20392;-67
2022/04/14 02:08:48;;;;;;;0.00;0.00;;;15.30;75.20;;;;;;4122858;28;20089;-67
2022/04/14 02:11:10;;;;;;;0.00;0.00;;;15.20;75.30;;;;;;4136289;28;20046;-69
2022/04/14 02:13:36;;;;;;;0.00;0.00;;;15.20;75.20;;;;;;4149710;28;20060;-69
2022/04/14 02:16:00;;;;;;;0.00;0.00;;;15.20;75.20;;;;;;4136666;28;20060;-71
2022/04/14 02:18:26;;;;;;;0.00;0.00;;;15.20;75.40;;;;;;4149987;28;20135;-70
2022/04/14 02:20:48;;;;;;;0.00;0.00;;;15.20;75.50;;;;;;4149375;28;20148;-67
2022/04/14 02:23:13;;;;;;;0.00;0.00;;;15.10;75.40;;;;;;4150851;28;20050;-65
2022/04/14 02:25:35;;;;;;;0.00;0.00;;;15.10;75.80;;;;;;4139568;28;20374;-69
2022/04/14 02:27:59;;;;;;;0.00;0.00;;;15.10;75.80;;;;;;4153212;28;20054;-69
2022/04/14 02:30:29;;;;;;;0.00;0.00;;;15.10;75.90;;;;;;4153242;28;20472;-72
2022/04/14 02:32:54;;;;;;;0.00;0.00;;;15.00;76.10;;;;;;4139091;28;20046;-69
2022/04/14 02:35:16;;;;;;;0.00;0.00;;;15.00;76.20;;;;;;4139416;28;20485;-73
2022/04/14 02:37:41;;;;;;;0.00;0.00;;;15.00;76.70;;;;;;4139452;28;20427;-68
2022/04/14 02:40:04;;;;;;;0.00;0.00;;;15.00;76.30;;;;;;4153094;28;20108;-68
2022/04/14 02:42:28;;;;;;;0.00;0.00;;;14.90;76.40;;;;;;4152935;28;20048;-69
2022/04/14 02:44:53;;;;;;;0.00;0.00;;;14.90;76.60;;;;;;4138735;28;20043;-67
2022/04/14 02:47:17;;;;;;;0.00;0.00;;;14.90;76.70;;;;;;4153019;28;20049;-71
2022/04/14 02:49:44;;;;;;;0.00;0.00;;;14.90;76.80;;;;;;4152999;28;20045;-70
2022/04/14 02:52:06;;;;;;;0.00;0.00;;;14.90;76.80;;;;;;4152923;28;20038;-69
2022/04/14 02:54:37;;;;;;;0.00;0.00;;;14.90;76.70;;;;;;4153045;28;20384;-74
2022/04/14 02:56:59;;;;;;;0.00;0.00;;;14.90;76.60;;;;;;4139022;28;20046;-70
2022/04/14 02:59:23;;;;;;;0.00;0.00;;;14.90;76.70;;;;;;4138761;28;20049;-68
2022/04/14 03:01:45;;;;;;;0.00;0.00;;;14.90;76.70;;;;;;4152896;28;20107;-67
2022/04/14 03:04:10;;;;;;;0.00;0.00;;;14.80;76.90;;;;;;4153110;28;20041;-70
2022/04/14 03:06:34;;;;;;;0.00;0.00;;;14.80;77.00;;;;;;4152877;28;20042;-69
2022/04/14 03:08:56;;;;;;;0.00;0.00;;;14.80;76.90;;;;;;4152053;28;20368;-67
2022/04/14 03:11:19;;;;;;;0.00;0.00;;;14.80;77.00;;;;;;4152469;28;20428;-67
2022/04/14 03:13:46;;;;;;;0.00;0.00;;;14.80;76.90;;;;;;4125725;28;20049;-70
2022/04/14 03:16:13;;;;;;;0.00;0.00;;;14.80;77.10;;;;;;4152367;28;20034;-68
2022/04/14 03:18:38;;;;;;;0.00;0.00;;;14.80;77.20;;;;;;4138807;28;20472;-69
2022/04/14 03:21:01;;;;;;;0.00;0.00;;;14.70;77.10;;;;;;4151663;28;20377;-70
2022/04/14 03:23:26;;;;;;;0.00;0.00;;;14.70;77.10;;;;;;4138970;28;20072;-67
2022/04/14 03:25:59;;;;;;;0.00;0.00;;;14.70;77.30;;;;;;4152603;28;20069;-66
2022/04/14 03:28:21;;;;;;;0.00;0.00;;;14.70;77.30;;;;;;4138482;28;20068;-69
2022/04/14 03:30:47;;;;;;;0.00;0.00;;;14.70;77.10;;;;;;4138301;28;20444;-72
2022/04/14 03:33:12;;;;;;;0.00;0.00;;;14.70;77.10;;;;;;4152223;28;20437;-71
2022/04/14 03:35:39;;;;;;;0.00;0.00;;;14.70;77.00;;;;;;4137432;28;20060;-67
2022/04/14 03:38:04;;;;;;;0.00;0.00;;;14.70;76.90;;;;;;4139019;28;20054;-69
2022/04/14 03:40:45;;;;;;;;;;;14.60;77.10;;;;;;4152468;28;20069;-65
2022/04/14 03:43:10;;;;;;;0.00;0.00;;;14.50;77.10;;;;;;4151937;28;19928;-72
2022/04/14 03:45:34;;;;;;;0.00;0.00;;;14.40;77.50;;;;;;4138639;28;20531;-69
2022/04/14 03:47:59;;;;;;;0.00;0.00;;;14.40;77.60;;;;;;4151994;28;20062;-70
2022/04/14 03:50:28;;;;;;;0.00;0.00;;;14.30;77.60;;;;;;4151881;28;20116;-66
2022/04/14 03:52:50;;;;;;;0.00;0.00;;;14.30;77.60;;;;;;4137940;28;20424;-67
2022/04/14 03:55:12;;;;;;;0.00;0.00;;;14.40;77.60;;;;;;4151788;28;20552;-67
2022/04/14 03:57:37;;;;;;;0.00;0.00;;;14.40;77.60;;;;;;4138143;28;20049;-66
2022/04/14 04:00:02;;;;;;;0.00;0.00;;;14.30;77.50;;;;;;4138414;28;20086;-71
2022/04/14 04:02:30;;;;;;;0.00;0.00;;;14.30;77.80;;;;;;4138164;28;20056;-68
2022/04/14 04:04:54;;;;;;;0.00;0.00;;;14.30;77.80;;;;;;4151336;28;20046;-69
2022/04/14 04:07:18;;;;;;;0.00;0.00;;;14.30;77.70;;;;;;4138296;28;20100;-67
2022/04/14 04:09:40;;;;;;;0.00;0.00;;;14.20;77.70;;;;;;4137883;28;20050;-69
2022/04/14 04:12:09;;;;;;;0.00;0.00;;;14.20;77.90;;;;;;4138087;28;20060;-70
2022/04/14 04:14:31;;;;;;;0.00;0.00;;;14.10;78.10;;;;;;4151605;28;20042;-66
2022/04/14 04:16:55;;;;;;;0.00;0.00;;;14.10;78.20;;;;;;4137892;28;20396;-67
2022/04/14 04:19:19;;;;;;;0.00;0.00;;;14.00;78.40;;;;;;4137670;28;20109;-69
2022/04/14 04:21:41;;;;;;;0.00;0.00;;;14.00;78.50;;;;;;4137782;28;20053;-67
2022/04/14 04:24:04;;;;;;;0.00;0.00;;;14.00;78.60;;;;;;4151396;28;20509;-68
2022/04/14 04:26:26;;;;;;;0.00;0.00;;;14.00;78.50;;;;;;4138082;28;20100;-67
2022/04/14 04:28:48;;;;;;;0.00;0.00;;;14.10;78.70;;;;;;4150950;28;20417;-68
2022/04/14 04:31:10;;;;;;;0.00;0.00;;;14.10;78.70;;;;;;4151636;28;20088;-67
2022/04/14 04:33:33;;;;;;;0.00;0.00;;;14.00;78.90;;;;;;4137982;28;20045;-69
2022/04/14 04:35:57;;;;;;;0.00;0.00;;;13.90;79.30;;;;;;4151490;28;20103;-70
2022/04/14 04:38:19;;;;;;;0.00;0.00;;;14.00;79.40;;;;;;4166330;28;20423;-69
2022/04/14 04:40:41;;;;;;;0.00;0.00;;;14.10;79.30;;;;;;4151321;28;20048;-70
2022/04/14 04:43:05;;;;;;;0.00;0.00;;;14.00;79.30;;;;;;4151410;28;20041;-68
2022/04/14 04:45:30;;;;;;;0.00;0.00;;;13.90;79.60;;;;;;4138114;28;20042;-74
2022/04/14 04:47:52;;;;;;;0.00;0.00;;;13.90;80.10;;;;;;4151410;28;20093;-70
2022/04/14 04:50:16;;;;;;;0.00;0.00;;;13.90;80.20;;;;;;4138524;28;20042;-70
2022/04/14 04:52:38;;;;;;;0.00;0.00;;;13.90;80.60;;;;;;4137991;28;20083;-64
2022/04/14 04:55:06;;;;;;;0.00;0.00;;;13.70;81.10;;;;;;4151132;28;20054;-66
2022/04/14 04:57:28;;;;;;;0.00;0.00;;;13.70;81.90;;;;;;4151473;28;20437;-67
2022/04/14 04:59:50;;;;;;;0.00;0.00;;;13.70;81.90;;;;;;4150132;28;20109;-70
2022/04/14 05:02:13;;;;;;;0.00;0.00;;;13.80;81.90;;;;;;4167891;28;20149;-71
2022/04/14 05:04:35;;;;;;;0.00;0.00;;;13.80;82.20;;;;;;4154052;28;20076;-69
2022/04/14 05:07:00;;;;;;;0.00;0.00;;;13.70;82.60;;;;;;4167377;28;20063;-69
2022/04/14 05:09:27;;;;;;;0.00;0.00;;;13.70;82.70;;;;;;4153886;28;20546;-67
2022/04/14 05:11:49;;;;;;;0.00;0.00;;;13.70;82.80;;;;;;4167445;28;20474;-68
2022/04/14 05:14:11;;;;;;;0.00;0.00;;;13.90;82.60;;;;;;4167473;28;20038;-67
2022/04/14 05:16:33;;;;;;;0.00;0.00;;;14.10;82.40;;;;;;4154175;28;20046;-66
2022/04/14 05:18:55;;;;;;;0.00;0.00;;;14.10;82.40;;;;;;4167053;28;20063;-69
2022/04/14 05:21:18;;;;;;;0.00;0.00;;;14.20;82.20;;;;;;4153717;28;20042;-69
2022/04/14 05:23:42;;;;;;;0.00;0.00;;;14.30;82.00;;;;;;4153823;28;20099;-69
2022/04/14 05:26:07;;;;;;;0.00;0.00;;;14.40;81.70;;;;;;4153790;28;20046;-68
2022/04/14 05:28:31;;;;;;;0.00;0.00;;;14.40;81.50;;;;;;4140331;28;20052;-68
2022/04/14 05:30:56;;;;;;;0.00;0.00;;;14.40;81.50;;;;;;4166934;28;20538;-68
2022/04/14 05:33:18;;;;;;;0.00;0.00;;;14.40;81.20;;;;;;4153591;28;20045;-68
2022/04/14 05:35:45;;;;;;;0.00;0.00;;;14.50;81.40;;;;;;4153398;28;20050;-68
2022/04/14 05:38:07;;;;;;;0.00;0.00;;;14.60;81.30;;;;;;4166926;28;20049;-69
2022/04/14 05:40:29;;;;;;;0.00;0.00;;;14.60;81.40;;;;;;4153400;28;20049;-68
2022/04/14 05:42:52;;;;;;;0.00;0.00;;;14.60;81.30;;;;;;4166676;28;20056;-68
2022/04/14 05:45:16;;;;;;;0.00;0.00;;;14.60;81.20;;;;;;4165859;28;20048;-69
2022/04/14 05:47:39;;;;;;;0.00;0.00;;;14.70;80.90;;;;;;4166447;28;20052;-70
2022/04/14 05:50:03;;;;;;;0.00;0.00;;;14.80;80.80;;;;;;4166072;28;20357;-72
2022/04/14 05:52:25;;;;;;;0.00;0.00;;;14.90;80.80;;;;;;4152637;28;20056;-71
2022/04/14 05:54:53;;;;;;;0.00;0.00;;;14.90;80.80;;;;;;4166367;28;20095;-69
2022/04/14 05:57:17;;;;;;;0.00;0.00;;;15.00;80.60;;;;;;4166838;28;20614;-70
2022/04/14 05:59:42;;;;;;;0.00;0.00;;;14.90;80.80;;;;;;4163671;28;20037;-67
2022/04/14 06:02:05;;;;;;;0.00;0.00;;;14.90;80.70;;;;;;4164354;28;20041;-69
2022/04/14 06:04:27;;;;;;;0.00;0.00;;;14.90;80.50;;;;;;4151139;28;20046;-71
2022/04/14 06:06:49;;;;;;;0.00;0.00;;;14.90;80.70;;;;;;4150302;28;20052;-70
2022/04/14 06:09:12;;;;;;;0.00;0.00;;;14.90;81.10;;;;;;4148567;28;20050;-69
2022/04/14 06:11:41;;;;;;;0.00;0.00;;;14.80;81.40;;;;;;4122855;28;20038;-69
2022/04/14 06:14:09;;;;;;;0.00;0.00;;;14.90;81.20;;;;;;4163964;28;20057;-68
2022/04/14 06:16:31;;;;;;;0.00;0.00;;;15.00;81.10;;;;;;4163921;28;20055;-71
2022/04/14 06:18:58;;;;;;;0.00;0.00;;;15.10;80.90;;;;;;4163404;28;20521;-69
2022/04/14 06:21:23;;;;;;;0.00;0.00;;;15.10;81.00;;;;;;4163969;28;20050;-69
2022/04/14 06:23:49;;;;;;;0.00;0.00;;;15.20;81.00;;;;;;4136260;28;20046;-71
2022/04/14 06:26:12;;;;;;;0.00;0.00;;;15.20;80.90;;;;;;4150245;28;20030;-69
2022/04/14 06:28:34;;;;;;;0.00;0.00;;;15.30;80.70;;;;;;4136683;28;20042;-69
2022/04/14 06:30:59;;;;;;;0.00;0.00;;;15.40;80.60;;;;;;4136270;28;20042;-67
2022/04/14 06:33:30;;;;;;;0.00;0.00;;;15.50;80.50;;;;;;4150109;28;20483;-69
2022/04/14 06:35:52;;;;;;;0.00;0.00;;;15.60;80.40;;;;;;4136420;28;20054;-69
2022/04/14 06:38:17;;;;;;;0.00;0.00;;;15.70;80.10;;;;;;4163669;28;20067;-70
2022/04/14 06:40:41;;;;;;;0.00;0.00;;;15.80;79.70;;;;;;4136859;28;20061;-70
2022/04/14 06:43:06;;;;;;;0.00;0.00;;;15.80;79.10;;;;;;4163517;28;20047;-71
2022/04/14 06:45:31;;;;;;;0.00;0.00;;;15.80;79.20;;;;;;4148498;28;20147;-68
2022/04/14 06:47:58;;;;;;;0.00;0.00;;;15.70;79.40;;;;;;4163856;28;20045;-71
2022/04/14 06:50:23;;;;;;;0.00;0.00;;;15.60;79.40;;;;;;4163497;28;20089;-71
2022/04/14 06:52:45;;;;;;;0.00;0.00;;;15.70;79.50;;;;;;4149619;28;20498;-69
2022/04/14 06:55:14;;;;;;;0.00;0.00;;;15.80;79.20;;;;;;4163746;28;20045;-68
2022/04/14 06:57:37;;;;;;;0.00;0.00;;;15.90;79.00;;;;;;4150152;28;20065;-68
2022/04/14 07:00:03;;;;;;;0.00;0.00;;;16.00;78.30;;;;;;4149339;28;20045;-69
2022/04/14 07:02:25;;;;;;;0.00;0.00;;;16.20;77.70;;;;;;4117392;28;20051;-68
2022/04/14 07:04:53;;;;;;;0.00;0.00;;;16.30;77.00;;;;;;4130967;28;20399;-71
2022/04/14 07:07:22;;;;;;;0.00;0.00;;;16.30;76.90;;;;;;4130952;28;20495;-71
2022/04/14 07:09:46;;;;;;;0.00;0.00;;;16.40;76.30;;;;;;4131157;28;20416;-69
2022/04/14 07:12:09;;;;;;;0.00;0.00;;;16.50;76.00;;;;;;4133772;28;20042;-68
2022/04/14 07:14:31;;;;;;;0.00;0.00;;;16.80;75.80;;;;;;4120498;28;20731;-69
2022/04/14 07:16:56;;;;;;;0.00;0.00;;;16.80;75.90;;;;;;4133609;28;20080;-69
2022/04/14 07:19:18;;;;;;;0.00;0.00;;;16.80;75.60;;;;;;4133785;28;20042;-68
2022/04/14 07:21:40;;;;;;;0.00;0.00;;;16.90;75.50;;;;;;4106861;28;20057;-70
2022/04/14 07:24:03;;;;;;;0.00;0.00;;;16.90;75.50;;;;;;4120075;28;20057;-68
2022/04/14 07:26:25;;;;;;;0.00;0.00;;;16.80;75.40;;;;;;4107157;28;20046;-71
2022/04/14 07:28:47;;;;;;;0.00;0.00;;;16.90;74.80;;;;;;4133445;28;20542;-69
2022/04/14 07:31:12;;;;;;;0.00;0.00;;;17.00;74.50;;;;;;4120442;28;20466;-70
2022/04/14 07:33:36;;;;;;;0.00;0.00;;;17.10;74.30;;;;;;4133740;28;20046;-70
2022/04/14 07:36:06;;;;;;;0.00;0.00;;;17.10;74.30;;;;;;4120309;28;20145;-71
2022/04/14 07:38:51;;;;;;;0.00;0.00;;;17.10;74.30;;;;;;4133268;28;20049;-70
2022/04/14 07:41:13;;;;;;;0.00;0.00;;;17.30;73.10;;;;;;4120431;28;20042;-71
2022/04/14 07:43:37;;;;;;;0.00;0.00;;;17.30;72.70;;;;;;4143493;28;20038;-70
2022/04/14 07:45:59;;;;;;;0.00;0.00;;;17.30;72.50;;;;;;4122889;28;20595;-69
2022/04/14 07:48:23;;;;;;;0.00;0.00;;;17.60;71.90;;;;;;4136195;28;20473;-69
2022/04/14 07:50:45;;;;;;;0.00;0.00;;;17.80;71.60;;;;;;4122133;28;20069;-69
2022/04/14 07:53:10;;;;;;;0.00;0.00;;;18.00;70.90;;;;;;4135659;28;20061;-72
2022/04/14 07:55:33;;;;;;;0.00;0.00;;;18.10;71.10;;;;;;4136206;28;20056;-69
2022/04/14 07:57:58;;;;;;;0.00;0.00;;;18.30;71.10;;;;;;4135923;28;20380;-72
2022/04/14 08:00:23;;;;;;;0.00;0.00;;;18.50;70.60;;;;;;4137617;28;20466;-71
2022/04/14 08:02:56;;;;;;;0.00;0.00;;;18.70;69.70;;;;;;4151662;28;20387;-71
2022/04/14 08:05:26;;;;;;;0.00;0.00;;;18.80;69.30;;;;;;4138352;28;20034;-68
2022/04/14 08:07:51;;;;;;;0.00;0.00;;;18.60;70.00;;;;;;4151833;28;20108;-70
2022/04/14 08:10:16;;;;;;;0.00;0.00;;;18.40;70.00;;;;;;4152035;28;20049;-69
2022/04/14 08:12:40;;;;;;;0.00;0.00;;;18.30;70.30;;;;;;4138009;28;20125;-69
2022/04/14 08:15:04;;;;;;;0.00;0.00;;;18.20;70.60;;;;;;4152010;28;20041;-72
2022/04/14 08:17:25;;;;;;;0.00;0.00;;;18.20;71.60;;;;;;4138334;28;20097;-69
2022/04/14 08:19:48;;;;;;;0.00;0.00;;;18.30;71.90;;;;;;4151876;28;20050;-71
2022/04/14 08:22:12;;;;;;;0.00;0.00;;;18.20;72.20;;;;;;4151382;28;20041;-70
2022/04/14 08:24:35;;;;;;;0.00;0.00;;;17.90;72.30;;;;;;4165543;28;20077;-70
2022/04/14 08:26:59;;;;;;;0.00;0.00;;;17.80;73.40;;;;;;4165267;28;20046;-69
2022/04/14 08:29:21;;;;;;;0.00;0.00;;;18.10;73.60;;;;;;4138110;28;20465;-68
2022/04/14 08:31:45;;;;;;;0.00;0.00;;;18.30;73.00;;;;;;4138079;28;20042;-69
2022/04/14 08:34:10;;;;;;;0.00;0.00;;;18.50;71.90;;;;;;4151566;28;20136;-70
2022/04/14 08:36:36;;;;;;;0.00;0.00;;;18.60;71.40;;;;;;4151651;28;20451;-68
2022/04/14 08:39:00;;;;;;;0.00;0.00;;;18.60;70.80;;;;;;4164869;28;20467;-69
2022/04/14 08:41:26;;;;;;;0.00;0.00;;;18.60;70.10;;;;;;4151294;28;20046;-69
2022/04/14 08:44:06;;;;;;;0.00;0.00;;;18.60;70.90;;;;;;4137971;28;20050;-70
2022/04/14 08:46:29;;;;;;;0.00;0.00;;;18.60;71.00;;;;;;4151225;28;20111;-70
2022/04/14 08:48:52;;;;;;;0.00;0.00;;;18.80;70.10;;;;;;4150862;28;20201;-70
2022/04/14 08:51:14;;;;;;;0.00;0.00;;;19.00;68.90;;;;;;4164993;28;20042;-68
2022/04/14 08:53:38;;;;;;;0.00;0.00;;;19.10;68.20;;;;;;4151762;28;20451;-70
2022/04/14 08:56:00;;;;;;;0.00;0.00;;;19.30;66.80;;;;;;4151274;28;20116;-69
2022/04/14 08:58:26;;;;;;;0.00;0.00;;;19.40;66.00;;;;;;4165211;28;20060;-68
2022/04/14 09:00:51;;;;;;;0.00;0.00;;;19.50;65.80;;;;;;4148268;28;20061;-70
2022/04/14 09:03:34;;;;;;;0.00;0.00;;;19.60;64.90;;;;;;4124362;28;20104;-68
2022/04/14 09:06:02;;;;;;;0.00;0.00;;;19.90;64.60;;;;;;4148236;28;20049;-73
2022/04/14 09:08:24;;;;;;;0.00;0.00;;;20.10;63.80;;;;;;4118414;28;20089;-70
2022/04/14 09:10:50;;;;;;;0.00;0.00;;;20.10;64.80;;;;;;4131489;28;20058;-68
2022/04/14 09:13:13;;;;;;;0.00;0.00;;;20.00;64.20;;;;;;4145955;28;20057;-72
2022/04/14 09:15:37;;;;;;;0.00;0.00;;;20.10;64.10;;;;;;4118637;28;20066;-69
2022/04/14 09:18:04;;;;;;;0.00;0.00;;;20.40;63.30;;;;;;4132090;28;20042;-69
2022/04/14 09:20:26;;;;;;;0.00;0.00;;;20.60;63.00;;;;;;4132309;28;20471;-70
2022/04/14 09:23:09;;;;;;;0.00;0.00;;;20.80;62.30;;;;;;4131699;28;20058;-68
2022/04/14 09:25:33;;;;;;;0.00;0.00;;;21.10;61.20;;;;;;4118812;28;20481;-69
2022/04/14 09:28:08;;;;;;;0.00;0.00;;;21.30;59.90;;;;;;4145280;28;20109;-69
2022/04/14 09:30:33;;;;;;;0.00;0.00;;;21.40;59.50;;;;;;4131799;28;20463;-68
2022/04/14 09:32:57;;;;;;;0.00;0.00;;;21.40;59.30;;;;;;4117018;28;20094;-70
2022/04/14 09:35:31;;;;;;;0.00;0.00;;;21.50;59.30;;;;;;4119304;28;20065;-69
2022/04/14 09:38:02;;;;;;;0.00;0.00;;;21.30;59.40;;;;;;4131738;28;20038;-71
2022/04/14 09:40:29;;;;;;;0.00;0.00;;;21.00;60.00;;;;;;4118479;28;20113;-68
2022/04/14 09:42:56;;;;;;;0.00;0.00;;;21.00;60.20;;;;;;4131326;28;20097;-69
2022/04/14 09:45:28;;;;;;;0.00;0.00;;;21.40;59.80;;;;;;4131723;28;20137;-70
2022/04/14 09:48:06;;;;;;;0.00;0.00;;;21.60;58.80;;;;;;4131955;28;20089;-71
2022/04/14 09:50:39;;;;;;;0.00;0.00;;;21.60;58.20;;;;;;4122253;28;20049;-70
2022/04/14 09:53:01;;;;;;;0.00;0.00;;;21.70;57.20;;;;;;4134053;28;20053;-70
2022/04/14 09:55:24;;;;;;;0.00;0.00;;;22.00;57.50;;;;;;4120787;28;20093;-70
2022/04/14 09:58:05;;;;;;;0.00;0.00;;;22.00;57.40;;;;;;4134319;28;20101;-69
2022/04/14 10:00:48;;;;;;;0.00;0.00;;;21.60;58.00;;;;;;4136117;28;20447;-70
2022/04/14 10:03:14;;;;;;;0.00;0.00;;;21.40;59.70;;;;;;4136172;28;20420;-70
2022/04/14 10:05:39;;;;;;;0.00;0.00;;;21.60;60.60;;;;;;4136716;28;20093;-69
2022/04/14 10:08:09;;;;;;;0.00;0.00;;;22.00;59.70;;;;;;4136813;28;20097;-71
2022/04/14 10:10:39;;;;;;;0.00;0.00;;;22.30;58.80;;;;;;4136961;28;20057;-68
2022/04/14 10:13:21;;;;;;;0.00;0.00;;;22.40;58.30;;;;;;4149776;28;20045;-68
2022/04/14 10:15:48;;;;;;;0.00;0.00;;;22.60;57.50;;;;;;4150457;28;20483;-69
2022/04/14 10:18:15;;;;;;;0.00;0.00;;;22.80;57.90;;;;;;4150479;28;20058;-68
2022/04/14 10:20:39;;;;;;;0.00;0.00;;;23.00;57.80;;;;;;4137126;28;20050;-68
2022/04/14 10:23:01;;;;;;;0.00;0.00;;;23.10;57.30;;;;;;4149964;28;20042;-69
2022/04/14 10:25:27;;;;;;;0.00;0.00;;;23.10;56.80;;;;;;4150633;28;20041;-70
2022/04/14 10:27:55;;;;;;;0.00;0.00;;;23.00;56.80;;;;;;4150545;28;20041;-71
2022/04/14 10:30:20;;;;;;;0.00;0.00;;;22.90;56.90;;;;;;4136789;28;20042;-70
2022/04/14 10:32:48;;;;;;;0.00;0.00;;;22.70;56.90;;;;;;4150030;28;20473;-72
2022/04/14 10:35:10;;;;;;;0.00;0.00;;;22.20;58.20;;;;;;4136734;28;20507;-68
2022/04/14 10:37:40;;;;;;;0.00;0.00;;;21.90;58.90;;;;;;4123432;28;20042;-70
2022/04/14 10:40:03;;;;;;;0.00;0.00;;;21.70;59.40;;;;;;4164759;28;20048;-70
2022/04/14 10:42:27;;;;;;;0.00;0.00;;;21.60;59.40;;;;;;4150402;28;20057;-70
2022/04/14 10:44:53;;;;;;;0.00;0.00;;;21.40;59.20;;;;;;4151331;28;20710;-68
2022/04/14 10:47:34;;;;;;;0.00;0.00;;;21.30;60.10;;;;;;4139845;28;20077;-70
2022/04/14 10:49:58;;;;;;;0.00;0.00;;;21.40;60.30;;;;;;4153196;28;20041;-69
2022/04/14 10:52:27;;;;;;;0.00;0.00;;;21.40;60.90;;;;;;4140496;28;20434;-73
2022/04/14 10:55:03;;;;;;;0.00;0.00;;;21.50;61.30;;;;;;4138697;28;20066;-70
2022/04/14 10:57:39;;;;;;;0.00;0.00;;;21.80;61.10;;;;;;4153104;28;20046;-68
2022/04/14 11:00:21;;;;;;;0.00;0.00;;;22.10;60.90;;;;;;4139488;28;20046;-69
2022/04/14 11:03:02;;;;;;;0.00;0.00;;;22.30;59.50;;;;;;4152619;28;20077;-71
2022/04/14 11:05:39;;;;;;;0.00;0.00;;;22.20;59.10;;;;;;4140158;28;20105;-69
2022/04/14 11:08:22;;;;;;;0.00;0.00;;;22.20;59.70;;;;;;4152845;28;20046;-69
2022/04/14 11:11:15;;;;;;;0.00;0.00;;;22.40;59.70;;;;;;4152479;28;20045;-72
2022/04/14 11:13:58;;;;;;;0.00;0.00;;;22.50;58.90;;;;;;4152756;28;20041;-72
2022/04/14 11:16:48;;;;;;;0.00;0.00;;;22.80;59.00;;;;;;4139721;28;20046;-72
2022/04/14 11:19:21;;;;;;;0.00;0.00;;;22.90;58.10;;;;;;4166379;28;20054;-71
2022/04/14 11:22:01;;;;;;;0.00;0.00;;;22.90;58.10;;;;;;4153107;28;20354;-73
2022/04/14 11:24:37;;;;;;;0.00;0.00;;;23.00;57.90;;;;;;4166784;28;20056;-71
2022/04/14 11:27:14;;;;;;;0.00;0.00;;;22.90;57.50;;;;;;4152215;28;20475;-68
2022/04/14 11:29:40;;;;;;;0.00;0.00;;;22.90;56.90;;;;;;4139066;28;20504;-69
2022/04/14 11:32:02;;;;;;;0.00;0.00;;;23.00;56.20;;;;;;4152753;28;20049;-70
2022/04/14 11:34:32;;;;;;;0.00;0.00;;;23.00;55.70;;;;;;4125537;28;20473;-69
2022/04/14 11:36:54;;;;;;;0.00;0.00;;;23.10;56.40;;;;;;4152077;28;20060;-71
2022/04/14 11:39:21;;;;;;;0.00;0.00;;;23.10;56.90;;;;;;4139479;28;20049;-69
2022/04/14 11:41:54;;;;;;;0.00;0.00;;;23.10;56.40;;;;;;4152593;28;20038;-71
2022/04/14 11:44:21;;;;;;;0.00;0.00;;;23.20;55.50;;;;;;4139312;28;20046;-71
2022/04/14 11:46:52;;;;;;;0.00;0.00;;;23.20;56.70;;;;;;4138400;28;20404;-70
2022/04/14 11:49:18;;;;;;;0.00;0.00;;;23.40;56.10;;;;;;4139109;28;20054;-71
2022/04/14 11:51:44;;;;;;;0.00;0.00;;;23.50;56.70;;;;;;4138854;28;20054;-72
2022/04/14 11:54:06;;;;;;;0.00;0.00;;;23.60;56.80;;;;;;4152401;28;20095;-71
2022/04/14 11:56:55;;;;;;;0.00;0.00;;;23.70;56.20;;;;;;4151297;28;20049;-69
2022/04/14 11:59:33;;;;;;;0.00;0.00;;;23.60;56.20;;;;;;4152829;28;20061;-72
2022/04/14 12:02:03;;;;;;;0.00;0.00;;;23.70;56.00;;;;;;4152565;28;20038;-72
2022/04/14 12:04:25;;;;;;;0.00;0.00;;;23.70;55.60;;;;;;4139545;28;20089;-72
2022/04/14 12:06:56;;;;;;;0.00;0.00;;;23.80;55.90;;;;;;4138965;28;20492;-69
2022/04/14 12:09:22;;;;;;;0.00;0.00;;;23.70;55.50;;;;;;4139465;28;20050;-70
2022/04/14 12:11:44;;;;;;;0.00;0.00;;;23.70;56.00;;;;;;4138729;28;20046;-70
2022/04/14 12:14:09;;;;;;;0.00;0.00;;;23.70;56.20;;;;;;4138662;28;20113;-69
2022/04/14 12:16:34;;;;;;;0.00;0.00;;;23.70;55.50;;;;;;4139530;28;20102;-69
2022/04/14 12:19:02;;;;;;;0.00;0.00;;;23.70;55.80;;;;;;4138816;28;20117;-69
2022/04/14 12:21:26;;;;;;;0.00;0.00;;;23.70;56.00;;;;;;4138946;28;20477;-70
2022/04/14 12:23:50;;;;;;;0.00;0.00;;;23.60;55.20;;;;;;4138658;28;20054;-71
2022/04/14 12:26:12;;;;;;;0.00;0.00;;;23.50;54.60;;;;;;4138264;28;20054;-70
2022/04/14 12:28:34;;;;;;;0.00;0.00;;;23.70;54.70;;;;;;4138204;28;20097;-69
2022/04/14 12:31:09;;;;;;;0.00;0.00;;;23.90;54.50;;;;;;4137738;28;20058;-70
2022/04/14 12:33:31;;;;;;;0.00;0.00;;;23.90;53.80;;;;;;4137949;28;20073;-68
2022/04/14 12:36:06;;;;;;;0.00;0.00;;;23.90;54.00;;;;;;4138267;28;20529;-70
2022/04/14 12:38:29;;;;;;;0.00;0.00;;;23.80;53.00;;;;;;4151606;28;20477;-70
2022/04/14 12:40:57;;;;;;;0.00;0.00;;;23.70;53.40;;;;;;4123955;28;20042;-70
2022/04/14 12:43:21;;;;;;;0.00;0.00;;;23.70;52.90;;;;;;4151631;28;20046;-70